sensor_id;sensor_type;location;lat;lon;timestamp;temperature;humidity
63017;DHT22;50274;45.640;11.756;2023-01-23T00:01:17;5.30;63.80
63017;DHT22;50274;45.640;11.756;2023-01-23T00:03:43;5.30;64.00
63017;DHT22;50274;45.640;11.756;2023-01-23T00:06:14;5.40;63.90
63017;DHT22;50274;45.640;11.756;2023-01-23T00:08:41;5.30;63.90
63017;DHT22;50274;45.640;11.756;2023-01-23T00:11:12;5.40;64.10
63017;DHT22;50274;45.640;11.756;2023-01-23T00:13:39;5.40;64.00
63017;DHT22;50274;45.640;11.756;2023-01-23T00:16:11;5.40;64.00
63017;DHT22;50274;45.640;11.756;2023-01-23T00:18:37;5.40;63.90
63017;DHT22;50274;45.640;11.756;2023-01-23T00:21:04;5.40;63.80
63017;DHT22;50274;45.640;11.756;2023-01-23T00:23:31;5.30;64.00
63017;DHT22;50274;45.640;11.756;2023-01-23T00:26:04;5.40;63.90
63017;DHT22;50274;45.640;11.756;2023-01-23T00:28:30;5.40;63.90
63017;DHT22;50274;45.640;11.756;2023-01-23T00:31:07;5.40;64.10
63017;DHT22;50274;45.640;11.756;2023-01-23T00:33:34;5.40;64.00
63017;DHT22;50274;45.640;11.756;2023-01-23T00:36:00;5.40;63.90
63017;DHT22;50274;45.640;11.756;2023-01-23T00:38:26;5.40;64.00
63017;DHT22;50274;45.640;11.756;2023-01-23T00:40:52;5.50;64.00
63017;DHT22;50274;45.640;11.756;2023-01-23T00:43:21;5.50;63.90
63017;DHT22;50274;45.640;11.756;2023-01-23T00:45:47;5.50;64.00
63017;DHT22;50274;45.640;11.756;2023-01-23T00:48:12;5.50;63.90
63017;DHT22;50274;45.640;11.756;2023-01-23T00:50:38;5.50;63.80
63017;DHT22;50274;45.640;11.756;2023-01-23T00:53:04;5.50;63.80
63017;DHT22;50274;45.640;11.756;2023-01-23T00:55:30;5.50;63.80
63017;DHT22;50274;45.640;11.756;2023-01-23T00:57:56;5.50;63.80
63017;DHT22;50274;45.640;11.756;2023-01-23T01:00:21;5.50;63.80
63017;DHT22;50274;45.640;11.756;2023-01-23T01:02:47;5.50;63.90
63017;DHT22;50274;45.640;11.756;2023-01-23T01:05:13;5.50;63.80
63017;DHT22;50274;45.640;11.756;2023-01-23T01:07:40;5.50;63.90
63017;DHT22;50274;45.640;11.756;2023-01-23T01:10:06;5.60;63.90
63017;DHT22;50274;45.640;11.756;2023-01-23T01:12:32;5.60;64.00
63017;DHT22;50274;45.640;11.756;2023-01-23T01:14:57;5.60;64.00
63017;DHT22;50274;45.640;11.756;2023-01-23T01:17:23;5.60;64.00
63017;DHT22;50274;45.640;11.756;2023-01-23T01:19:49;5.60;64.00
63017;DHT22;50274;45.640;11.756;2023-01-23T01:22:15;5.60;64.10
63017;DHT22;50274;45.640;11.756;2023-01-23T01:24:41;5.60;64.00
63017;DHT22;50274;45.640;11.756;2023-01-23T01:27:07;5.50;64.00
63017;DHT22;50274;45.640;11.756;2023-01-23T01:29:33;5.50;64.10
63017;DHT22;50274;45.640;11.756;2023-01-23T01:31:59;5.50;64.30
63017;DHT22;50274;45.640;11.756;2023-01-23T01:34:24;5.50;64.30
63017;DHT22;50274;45.640;11.756;2023-01-23T01:36:50;5.50;64.30
63017;DHT22;50274;45.640;11.756;2023-01-23T01:39:16;5.50;64.20
63017;DHT22;50274;45.640;11.756;2023-01-23T01:41:42;5.60;64.20
63017;DHT22;50274;45.640;11.756;2023-01-23T01:44:20;5.60;64.30
63017;DHT22;50274;45.640;11.756;2023-01-23T01:46:46;5.60;64.30
63017;DHT22;50274;45.640;11.756;2023-01-23T01:49:25;5.50;64.30
63017;DHT22;50274;45.640;11.756;2023-01-23T01:52:04;5.50;64.20
63017;DHT22;50274;45.640;11.756;2023-01-23T01:54:35;5.50;64.10
63017;DHT22;50274;45.640;11.756;2023-01-23T01:57:06;5.50;64.10
63017;DHT22;50274;45.640;11.756;2023-01-23T01:59:46;5.50;64.10
63017;DHT22;50274;45.640;11.756;2023-01-23T02:02:18;5.50;64.20
63017;DHT22;50274;45.640;11.756;2023-01-23T02:04:47;5.50;64.10
63017;DHT22;50274;45.640;11.756;2023-01-23T02:10:30;5.60;64.10
63017;DHT22;50274;45.640;11.756;2023-01-23T02:13:22;5.50;64.10
63017;DHT22;50274;45.640;11.756;2023-01-23T02:15:50;5.50;64.10
63017;DHT22;50274;45.640;11.756;2023-01-23T02:18:17;5.50;64.10
63017;DHT22;50274;45.640;11.756;2023-01-23T02:20:43;5.50;64.10
63017;DHT22;50274;45.640;11.756;2023-01-23T02:28:18;5.50;64.00
63017;DHT22;50274;45.640;11.756;2023-01-23T02:30:44;5.50;63.90
63017;DHT22;50274;45.640;11.756;2023-01-23T02:35:49;5.50;64.00
63017;DHT22;50274;45.640;11.756;2023-01-23T02:38:18;5.50;64.00
63017;DHT22;50274;45.640;11.756;2023-01-23T02:40:46;5.50;64.00
63017;DHT22;50274;45.640;11.756;2023-01-23T02:43:14;5.50;64.00
63017;DHT22;50274;45.640;11.756;2023-01-23T02:45:41;5.50;64.00
63017;DHT22;50274;45.640;11.756;2023-01-23T02:48:07;5.50;64.00
63017;DHT22;50274;45.640;11.756;2023-01-23T02:50:34;5.60;64.00
63017;DHT22;50274;45.640;11.756;2023-01-23T02:53:00;5.60;63.90
63017;DHT22;50274;45.640;11.756;2023-01-23T02:55:25;5.60;63.90
63017;DHT22;50274;45.640;11.756;2023-01-23T02:57:55;5.50;63.90
63017;DHT22;50274;45.640;11.756;2023-01-23T03:00:44;5.50;64.00
63017;DHT22;50274;45.640;11.756;2023-01-23T03:03:10;5.50;63.90
63017;DHT22;50274;45.640;11.756;2023-01-23T03:05:37;5.50;64.00
63017;DHT22;50274;45.640;11.756;2023-01-23T03:08:03;5.50;64.10
63017;DHT22;50274;45.640;11.756;2023-01-23T03:10:29;5.50;64.10
63017;DHT22;50274;45.640;11.756;2023-01-23T03:12:56;5.50;64.20
63017;DHT22;50274;45.640;11.756;2023-01-23T03:15:27;5.50;64.20
63017;DHT22;50274;45.640;11.756;2023-01-23T03:17:53;5.50;64.30
63017;DHT22;50274;45.640;11.756;2023-01-23T03:20:19;5.50;64.30
63017;DHT22;50274;45.640;11.756;2023-01-23T03:22:48;5.50;64.30
63017;DHT22;50274;45.640;11.756;2023-01-23T03:25:14;5.60;64.40
63017;DHT22;50274;45.640;11.756;2023-01-23T03:27:40;5.60;64.40
63017;DHT22;50274;45.640;11.756;2023-01-23T03:30:07;5.60;64.50
63017;DHT22;50274;45.640;11.756;2023-01-23T03:32:43;5.70;64.40
63017;DHT22;50274;45.640;11.756;2023-01-23T03:35:11;5.60;64.50
63017;DHT22;50274;45.640;11.756;2023-01-23T03:37:42;5.70;64.50
63017;DHT22;50274;45.640;11.756;2023-01-23T03:40:28;5.70;64.60
63017;DHT22;50274;45.640;11.756;2023-01-23T03:43:12;5.70;64.60
63017;DHT22;50274;45.640;11.756;2023-01-23T03:45:37;5.70;64.60
63017;DHT22;50274;45.640;11.756;2023-01-23T03:48:03;5.70;64.60
63017;DHT22;50274;45.640;11.756;2023-01-23T03:50:29;5.70;64.70
63017;DHT22;50274;45.640;11.756;2023-01-23T03:52:55;5.70;64.70
63017;DHT22;50274;45.640;11.756;2023-01-23T03:55:22;5.70;64.70
63017;DHT22;50274;45.640;11.756;2023-01-23T03:57:48;5.70;64.90
63017;DHT22;50274;45.640;11.756;2023-01-23T04:00:14;5.70;64.80
63017;DHT22;50274;45.640;11.756;2023-01-23T04:02:42;5.70;64.70
63017;DHT22;50274;45.640;11.756;2023-01-23T04:05:08;5.70;64.80
63017;DHT22;50274;45.640;11.756;2023-01-23T04:07:34;5.80;64.70
63017;DHT22;50274;45.640;11.756;2023-01-23T04:09:59;5.70;64.70
63017;DHT22;50274;45.640;11.756;2023-01-23T04:12:25;5.80;64.50
63017;DHT22;50274;45.640;11.756;2023-01-23T04:14:51;5.80;64.20
63017;DHT22;50274;45.640;11.756;2023-01-23T04:17:17;5.90;64.20
63017;DHT22;50274;45.640;11.756;2023-01-23T04:19:43;6.00;63.80
63017;DHT22;50274;45.640;11.756;2023-01-23T04:22:09;6.20;63.20
63017;DHT22;50274;45.640;11.756;2023-01-23T04:24:35;6.50;63.00
63017;DHT22;50274;45.640;11.756;2023-01-23T04:27:00;6.60;63.50
63017;DHT22;50274;45.640;11.756;2023-01-23T04:29:26;6.80;63.90
63017;DHT22;50274;45.640;11.756;2023-01-23T04:31:52;6.90;63.90
63017;DHT22;50274;45.640;11.756;2023-01-23T04:34:18;7.00;63.90
63017;DHT22;50274;45.640;11.756;2023-01-23T04:36:44;7.10;64.40
63017;DHT22;50274;45.640;11.756;2023-01-23T04:39:09;7.20;64.80
63017;DHT22;50274;45.640;11.756;2023-01-23T04:41:35;7.30;65.30
63017;DHT22;50274;45.640;11.756;2023-01-23T04:44:01;7.30;65.40
63017;DHT22;50274;45.640;11.756;2023-01-23T04:46:49;7.40;66.40
63017;DHT22;50274;45.640;11.756;2023-01-23T04:49:15;7.50;67.00
63017;DHT22;50274;45.640;11.756;2023-01-23T04:51:43;7.50;66.80
63017;DHT22;50274;45.640;11.756;2023-01-23T04:54:10;7.50;66.90
63017;DHT22;50274;45.640;11.756;2023-01-23T04:56:36;7.50;67.30
63017;DHT22;50274;45.640;11.756;2023-01-23T04:59:02;7.50;67.20
63017;DHT22;50274;45.640;11.756;2023-01-23T05:01:28;7.50;67.70
63017;DHT22;50274;45.640;11.756;2023-01-23T05:03:54;7.50;68.10
63017;DHT22;50274;45.640;11.756;2023-01-23T05:06:20;7.50;68.60
63017;DHT22;50274;45.640;11.756;2023-01-23T05:08:46;7.40;68.60
63017;DHT22;50274;45.640;11.756;2023-01-23T05:11:12;7.40;69.50
63017;DHT22;50274;45.640;11.756;2023-01-23T05:13:37;7.40;71.10
63017;DHT22;50274;45.640;11.756;2023-01-23T05:16:03;7.30;70.10
63017;DHT22;50274;45.640;11.756;2023-01-23T05:18:29;7.30;71.60
63017;DHT22;50274;45.640;11.756;2023-01-23T05:20:55;7.20;71.30
63017;DHT22;50274;45.640;11.756;2023-01-23T05:23:21;7.10;71.50
63017;DHT22;50274;45.640;11.756;2023-01-23T05:25:47;7.10;71.50
63017;DHT22;50274;45.640;11.756;2023-01-23T05:28:12;7.00;72.20
63017;DHT22;50274;45.640;11.756;2023-01-23T05:30:38;7.00;72.80
63017;DHT22;50274;45.640;11.756;2023-01-23T05:33:04;7.00;72.60
63017;DHT22;50274;45.640;11.756;2023-01-23T05:35:30;6.90;72.50
63017;DHT22;50274;45.640;11.756;2023-01-23T05:37:56;6.90;72.90
63017;DHT22;50274;45.640;11.756;2023-01-23T05:40:22;6.90;73.10
63017;DHT22;50274;45.640;11.756;2023-01-23T05:42:48;6.90;73.30
63017;DHT22;50274;45.640;11.756;2023-01-23T05:45:15;6.90;73.50
63017;DHT22;50274;45.640;11.756;2023-01-23T05:47:41;6.80;73.90
63017;DHT22;50274;45.640;11.756;2023-01-23T05:50:13;6.80;74.00
63017;DHT22;50274;45.640;11.756;2023-01-23T05:52:40;6.80;74.70
63017;DHT22;50274;45.640;11.756;2023-01-23T05:55:06;6.80;74.40
63017;DHT22;50274;45.640;11.756;2023-01-23T05:57:33;6.80;74.10
63017;DHT22;50274;45.640;11.756;2023-01-23T05:59:59;6.80;76.20
63017;DHT22;50274;45.640;11.756;2023-01-23T06:02:25;6.80;75.40
63017;DHT22;50274;45.640;11.756;2023-01-23T06:04:50;6.80;74.70
63017;DHT22;50274;45.640;11.756;2023-01-23T06:07:18;6.80;75.00
63017;DHT22;50274;45.640;11.756;2023-01-23T06:09:44;6.80;75.90
63017;DHT22;50274;45.640;11.756;2023-01-23T06:12:11;6.70;75.20
63017;DHT22;50274;45.640;11.756;2023-01-23T06:14:36;6.70;75.60
63017;DHT22;50274;45.640;11.756;2023-01-23T06:17:03;6.80;76.90
63017;DHT22;50274;45.640;11.756;2023-01-23T06:19:29;6.80;76.10
63017;DHT22;50274;45.640;11.756;2023-01-23T06:21:55;6.80;76.60
63017;DHT22;50274;45.640;11.756;2023-01-23T06:24:21;6.70;76.40
63017;DHT22;50274;45.640;11.756;2023-01-23T06:26:47;6.70;76.70
63017;DHT22;50274;45.640;11.756;2023-01-23T06:29:13;6.70;76.30
63017;DHT22;50274;45.640;11.756;2023-01-23T06:31:39;6.70;77.20
63017;DHT22;50274;45.640;11.756;2023-01-23T06:34:06;6.70;77.20
63017;DHT22;50274;45.640;11.756;2023-01-23T06:36:32;6.70;76.30
63017;DHT22;50274;45.640;11.756;2023-01-23T06:38:59;6.70;76.70
63017;DHT22;50274;45.640;11.756;2023-01-23T06:41:25;6.60;76.20
63017;DHT22;50274;45.640;11.756;2023-01-23T06:43:50;6.60;76.40
63017;DHT22;50274;45.640;11.756;2023-01-23T06:46:18;6.70;77.20
63017;DHT22;50274;45.640;11.756;2023-01-23T06:48:44;6.60;76.40
63017;DHT22;50274;45.640;11.756;2023-01-23T06:51:10;6.60;77.40
63017;DHT22;50274;45.640;11.756;2023-01-23T06:53:36;6.60;77.80
63017;DHT22;50274;45.640;11.756;2023-01-23T06:56:04;6.60;77.30
63017;DHT22;50274;45.640;11.756;2023-01-23T06:58:31;6.60;78.10
63017;DHT22;50274;45.640;11.756;2023-01-23T07:00:57;6.60;78.70
63017;DHT22;50274;45.640;11.756;2023-01-23T07:03:23;6.70;78.20
63017;DHT22;50274;45.640;11.756;2023-01-23T07:05:49;6.70;79.40
63017;DHT22;50274;45.640;11.756;2023-01-23T07:08:16;6.70;80.10
63017;DHT22;50274;45.640;11.756;2023-01-23T07:10:42;6.80;79.90
63017;DHT22;50274;45.640;11.756;2023-01-23T07:13:09;6.70;79.70
63017;DHT22;50274;45.640;11.756;2023-01-23T07:15:36;6.70;79.20
63017;DHT22;50274;45.640;11.756;2023-01-23T07:18:03;6.70;79.60
63017;DHT22;50274;45.640;11.756;2023-01-23T07:20:29;6.80;79.10
63017;DHT22;50274;45.640;11.756;2023-01-23T07:22:56;6.70;79.30
63017;DHT22;50274;45.640;11.756;2023-01-23T07:25:24;6.70;79.80
63017;DHT22;50274;45.640;11.756;2023-01-23T07:27:50;6.80;80.10
63017;DHT22;50274;45.640;11.756;2023-01-23T07:30:16;6.80;80.00
63017;DHT22;50274;45.640;11.756;2023-01-23T07:32:42;6.80;80.40
63017;DHT22;50274;45.640;11.756;2023-01-23T07:35:08;6.80;80.90
63017;DHT22;50274;45.640;11.756;2023-01-23T07:37:35;6.80;80.80
63017;DHT22;50274;45.640;11.756;2023-01-23T07:40:01;6.80;80.80
63017;DHT22;50274;45.640;11.756;2023-01-23T07:42:26;6.80;80.50
63017;DHT22;50274;45.640;11.756;2023-01-23T07:44:52;6.80;80.60
63017;DHT22;50274;45.640;11.756;2023-01-23T07:47:18;6.80;81.20
63017;DHT22;50274;45.640;11.756;2023-01-23T07:49:44;6.80;82.40
63017;DHT22;50274;45.640;11.756;2023-01-23T07:52:10;6.80;81.50
63017;DHT22;50274;45.640;11.756;2023-01-23T07:54:36;6.80;81.30
63017;DHT22;50274;45.640;11.756;2023-01-23T07:57:02;6.80;81.30
63017;DHT22;50274;45.640;11.756;2023-01-23T07:59:28;6.80;81.20
63017;DHT22;50274;45.640;11.756;2023-01-23T08:01:53;6.80;81.80
63017;DHT22;50274;45.640;11.756;2023-01-23T08:04:19;6.70;81.40
63017;DHT22;50274;45.640;11.756;2023-01-23T08:06:45;6.80;81.50
63017;DHT22;50274;45.640;11.756;2023-01-23T08:09:11;6.80;81.40
63017;DHT22;50274;45.640;11.756;2023-01-23T08:11:38;6.80;81.40
63017;DHT22;50274;45.640;11.756;2023-01-23T08:14:03;6.80;81.60
63017;DHT22;50274;45.640;11.756;2023-01-23T08:16:29;6.80;81.70
63017;DHT22;50274;45.640;11.756;2023-01-23T08:18:55;6.80;81.80
63017;DHT22;50274;45.640;11.756;2023-01-23T08:21:21;6.80;81.60
63017;DHT22;50274;45.640;11.756;2023-01-23T08:23:47;6.80;81.40
63017;DHT22;50274;45.640;11.756;2023-01-23T08:26:15;6.80;81.60
63017;DHT22;50274;45.640;11.756;2023-01-23T08:28:42;6.80;81.90
63017;DHT22;50274;45.640;11.756;2023-01-23T08:31:09;6.80;81.70
63017;DHT22;50274;45.640;11.756;2023-01-23T08:33:36;6.80;82.00
63017;DHT22;50274;45.640;11.756;2023-01-23T08:36:04;6.80;81.90
63017;DHT22;50274;45.640;11.756;2023-01-23T08:38:30;6.80;82.10
63017;DHT22;50274;45.640;11.756;2023-01-23T08:40:59;6.80;82.30
63017;DHT22;50274;45.640;11.756;2023-01-23T08:43:25;6.90;82.60
63017;DHT22;50274;45.640;11.756;2023-01-23T08:45:52;6.80;82.30
63017;DHT22;50274;45.640;11.756;2023-01-23T08:48:19;6.80;82.20
63017;DHT22;50274;45.640;11.756;2023-01-23T08:50:46;6.90;82.30
63017;DHT22;50274;45.640;11.756;2023-01-23T08:53:13;6.80;82.40
63017;DHT22;50274;45.640;11.756;2023-01-23T08:55:39;6.90;83.00
63017;DHT22;50274;45.640;11.756;2023-01-23T08:58:08;6.80;82.90
63017;DHT22;50274;45.640;11.756;2023-01-23T09:00:34;6.90;83.00
63017;DHT22;50274;45.640;11.756;2023-01-23T09:03:01;6.80;83.20
63017;DHT22;50274;45.640;11.756;2023-01-23T09:05:28;6.80;83.50
63017;DHT22;50274;45.640;11.756;2023-01-23T09:07:55;6.80;83.50
63017;DHT22;50274;45.640;11.756;2023-01-23T09:10:21;6.80;83.10
63017;DHT22;50274;45.640;11.756;2023-01-23T09:12:51;6.80;83.70
63017;DHT22;50274;45.640;11.756;2023-01-23T09:15:17;6.80;83.40
63017;DHT22;50274;45.640;11.756;2023-01-23T09:17:43;6.80;83.40
63017;DHT22;50274;45.640;11.756;2023-01-23T09:20:09;6.80;83.50
63017;DHT22;50274;45.640;11.756;2023-01-23T09:22:35;6.80;83.50
63017;DHT22;50274;45.640;11.756;2023-01-23T09:25:01;6.80;83.90
63017;DHT22;50274;45.640;11.756;2023-01-23T09:27:27;6.80;83.80
63017;DHT22;50274;45.640;11.756;2023-01-23T09:29:53;6.80;84.10
63017;DHT22;50274;45.640;11.756;2023-01-23T09:32:19;6.80;83.90
63017;DHT22;50274;45.640;11.756;2023-01-23T09:34:45;6.90;84.90
63017;DHT22;50274;45.640;11.756;2023-01-23T09:37:14;6.80;84.60
63017;DHT22;50274;45.640;11.756;2023-01-23T09:39:41;6.80;84.30
63017;DHT22;50274;45.640;11.756;2023-01-23T09:42:17;6.80;84.50
63017;DHT22;50274;45.640;11.756;2023-01-23T09:44:56;6.80;84.20
63017;DHT22;50274;45.640;11.756;2023-01-23T09:47:48;6.90;85.00
63017;DHT22;50274;45.640;11.756;2023-01-23T09:50:24;6.90;84.30
63017;DHT22;50274;45.640;11.756;2023-01-23T09:53:11;7.00;84.70
63017;DHT22;50274;45.640;11.756;2023-01-23T09:55:57;6.90;84.30
63017;DHT22;50274;45.640;11.756;2023-01-23T09:58:29;7.00;84.20
63017;DHT22;50274;45.640;11.756;2023-01-23T10:00:56;7.00;84.10
63017;DHT22;50274;45.640;11.756;2023-01-23T10:03:27;7.00;84.50
63017;DHT22;50274;45.640;11.756;2023-01-23T10:24:59;7.10;84.60
63017;DHT22;50274;45.640;11.756;2023-01-23T10:27:47;7.10;84.50
63017;DHT22;50274;45.640;11.756;2023-01-23T10:30:27;7.10;84.70
63017;DHT22;50274;45.640;11.756;2023-01-23T10:33:14;7.20;84.80
63017;DHT22;50274;45.640;11.756;2023-01-23T10:36:04;7.20;84.70
63017;DHT22;50274;45.640;11.756;2023-01-23T10:38:40;7.20;84.80
63017;DHT22;50274;45.640;11.756;2023-01-23T10:41:14;7.20;85.10
63017;DHT22;50274;45.640;11.756;2023-01-23T10:43:49;7.20;85.00
63017;DHT22;50274;45.640;11.756;2023-01-23T10:46:17;7.20;85.20
63017;DHT22;50274;45.640;11.756;2023-01-23T10:51:45;7.20;84.80
63017;DHT22;50274;45.640;11.756;2023-01-23T10:54:20;7.20;84.70
63017;DHT22;50274;45.640;11.756;2023-01-23T10:56:51;7.30;85.10
63017;DHT22;50274;45.640;11.756;2023-01-23T11:04:37;7.30;85.50
63017;DHT22;50274;45.640;11.756;2023-01-23T11:07:15;7.30;85.10
63017;DHT22;50274;45.640;11.756;2023-01-23T11:09:47;7.30;84.80
63017;DHT22;50274;45.640;11.756;2023-01-23T11:12:17;7.40;84.70
63017;DHT22;50274;45.640;11.756;2023-01-23T11:14:43;7.40;85.00
63017;DHT22;50274;45.640;11.756;2023-01-23T11:17:21;7.30;85.00
63017;DHT22;50274;45.640;11.756;2023-01-23T11:19:52;7.40;84.60
63017;DHT22;50274;45.640;11.756;2023-01-23T11:22:29;7.40;84.50
63017;DHT22;50274;45.640;11.756;2023-01-23T11:24:55;7.40;84.20
63017;DHT22;50274;45.640;11.756;2023-01-23T11:27:27;7.50;84.20
63017;DHT22;50274;45.640;11.756;2023-01-23T11:32:32;7.40;84.60
63017;DHT22;50274;45.640;11.756;2023-01-23T11:35:13;7.30;84.40
63017;DHT22;50274;45.640;11.756;2023-01-23T11:37:40;7.40;84.70
63017;DHT22;50274;45.640;11.756;2023-01-23T11:42:39;7.30;84.50
63017;DHT22;50274;45.640;11.756;2023-01-23T11:48:16;7.40;84.80
63017;DHT22;50274;45.640;11.756;2023-01-23T11:51:10;7.40;84.50
63017;DHT22;50274;45.640;11.756;2023-01-23T11:53:53;7.40;84.40
63017;DHT22;50274;45.640;11.756;2023-01-23T11:56:55;7.40;84.50
63017;DHT22;50274;45.640;11.756;2023-01-23T11:59:41;7.40;84.40
63017;DHT22;50274;45.640;11.756;2023-01-23T12:08:08;7.50;83.90
63017;DHT22;50274;45.640;11.756;2023-01-23T12:10:48;7.60;83.50
63017;DHT22;50274;45.640;11.756;2023-01-23T12:21:28;7.70;83.20
63017;DHT22;50274;45.640;11.756;2023-01-23T12:27:22;7.80;83.30
63017;DHT22;50274;45.640;11.756;2023-01-23T12:29:52;7.80;83.10
63017;DHT22;50274;45.640;11.756;2023-01-23T12:40:47;7.90;82.20
63017;DHT22;50274;45.640;11.756;2023-01-23T12:43:32;7.90;82.40
63017;DHT22;50274;45.640;11.756;2023-01-23T12:46:17;7.90;82.40
63017;DHT22;50274;45.640;11.756;2023-01-23T12:49:15;7.90;82.20
63017;DHT22;50274;45.640;11.756;2023-01-23T12:51:40;8.00;82.20
63017;DHT22;50274;45.640;11.756;2023-01-23T12:54:14;8.00;81.80
63017;DHT22;50274;45.640;11.756;2023-01-23T12:56:43;8.10;81.30
63017;DHT22;50274;45.640;11.756;2023-01-23T12:59:14;8.10;81.30
63017;DHT22;50274;45.640;11.756;2023-01-23T13:08:28;8.30;80.50
63017;DHT22;50274;45.640;11.756;2023-01-23T13:13:45;8.40;79.60
63017;DHT22;50274;45.640;11.756;2023-01-23T13:16:14;8.40;79.50
63017;DHT22;50274;45.640;11.756;2023-01-23T13:19:00;8.50;79.00
63017;DHT22;50274;45.640;11.756;2023-01-23T13:27:35;8.60;78.00
63017;DHT22;50274;45.640;11.756;2023-01-23T13:30:02;8.70;77.20
63017;DHT22;50274;45.640;11.756;2023-01-23T13:32:29;8.70;77.20
63017;DHT22;50274;45.640;11.756;2023-01-23T13:34:56;8.80;76.40
63017;DHT22;50274;45.640;11.756;2023-01-23T13:42:50;8.90;75.70
63017;DHT22;50274;45.640;11.756;2023-01-23T13:45:24;8.90;75.80
63017;DHT22;50274;45.640;11.756;2023-01-23T13:48:14;9.00;75.60
63017;DHT22;50274;45.640;11.756;2023-01-23T13:51:14;9.00;75.50
63017;DHT22;50274;45.640;11.756;2023-01-23T13:53:52;9.00;75.80
63017;DHT22;50274;45.640;11.756;2023-01-23T13:56:39;9.00;75.80
63017;DHT22;50274;45.640;11.756;2023-01-23T13:59:37;9.00;75.40
63017;DHT22;50274;45.640;11.756;2023-01-23T14:05:13;9.10;75.10
63017;DHT22;50274;45.640;11.756;2023-01-23T14:07:44;9.10;74.80
63017;DHT22;50274;45.640;11.756;2023-01-23T14:12:40;9.10;74.90
63017;DHT22;50274;45.640;11.756;2023-01-23T14:15:38;9.00;75.10
63017;DHT22;50274;45.640;11.756;2023-01-23T14:21:29;9.00;75.10
63017;DHT22;50274;45.640;11.756;2023-01-23T14:23:59;9.00;75.50
63017;DHT22;50274;45.640;11.756;2023-01-23T14:26:52;9.00;75.10
63017;DHT22;50274;45.640;11.756;2023-01-23T14:29:27;9.00;75.30
63017;DHT22;50274;45.640;11.756;2023-01-23T14:31:54;9.00;75.40
63017;DHT22;50274;45.640;11.756;2023-01-23T14:34:24;9.00;75.30
63017;DHT22;50274;45.640;11.756;2023-01-23T14:37:04;9.00;75.60
63017;DHT22;50274;45.640;11.756;2023-01-23T14:39:33;9.00;75.60
63017;DHT22;50274;45.640;11.756;2023-01-23T14:42:00;8.90;75.90
63017;DHT22;50274;45.640;11.756;2023-01-23T14:44:42;8.80;75.70
63017;DHT22;50274;45.640;11.756;2023-01-23T14:49:50;8.80;75.60
63017;DHT22;50274;45.640;11.756;2023-01-23T14:52:23;8.90;75.70
63017;DHT22;50274;45.640;11.756;2023-01-23T14:54:49;8.90;75.80
63017;DHT22;50274;45.640;11.756;2023-01-23T14:57:16;8.80;75.50
63017;DHT22;50274;45.640;11.756;2023-01-23T14:59:43;8.90;74.90
63017;DHT22;50274;45.640;11.756;2023-01-23T15:08:02;8.90;74.60
63017;DHT22;50274;45.640;11.756;2023-01-23T15:13:13;8.80;74.80
63017;DHT22;50274;45.640;11.756;2023-01-23T15:15:57;8.80;74.90
63017;DHT22;50274;45.640;11.756;2023-01-23T15:18:29;8.80;75.30
63017;DHT22;50274;45.640;11.756;2023-01-23T15:20:58;8.70;75.60
63017;DHT22;50274;45.640;11.756;2023-01-23T15:23:30;8.70;75.70
63017;DHT22;50274;45.640;11.756;2023-01-23T15:26:24;8.70;75.80
63017;DHT22;50274;45.640;11.756;2023-01-23T15:28:57;8.70;75.80
63017;DHT22;50274;45.640;11.756;2023-01-23T15:31:34;8.70;76.20
63017;DHT22;50274;45.640;11.756;2023-01-23T15:37:16;8.60;76.30
63017;DHT22;50274;45.640;11.756;2023-01-23T15:39:58;8.60;76.20
63017;DHT22;50274;45.640;11.756;2023-01-23T15:43:13;8.60;76.20
63017;DHT22;50274;45.640;11.756;2023-01-23T15:45:40;8.60;76.20
63017;DHT22;50274;45.640;11.756;2023-01-23T15:48:06;8.60;76.10
63017;DHT22;50274;45.640;11.756;2023-01-23T15:50:33;8.50;76.10
63017;DHT22;50274;45.640;11.756;2023-01-23T15:52:59;8.50;76.30
63017;DHT22;50274;45.640;11.756;2023-01-23T15:55:26;8.60;75.90
63017;DHT22;50274;45.640;11.756;2023-01-23T15:57:54;8.50;76.30
63017;DHT22;50274;45.640;11.756;2023-01-23T16:00:24;8.50;76.60
63017;DHT22;50274;45.640;11.756;2023-01-23T16:02:51;8.50;76.60
63017;DHT22;50274;45.640;11.756;2023-01-23T16:05:18;8.50;76.40
63017;DHT22;50274;45.640;11.756;2023-01-23T16:07:45;8.40;76.40
63017;DHT22;50274;45.640;11.756;2023-01-23T16:12:47;8.50;75.60
63017;DHT22;50274;45.640;11.756;2023-01-23T16:15:21;8.50;75.10
63017;DHT22;50274;45.640;11.756;2023-01-23T16:17:48;8.60;74.90
63017;DHT22;50274;45.640;11.756;2023-01-23T16:20:16;8.50;74.60
63017;DHT22;50274;45.640;11.756;2023-01-23T16:22:42;8.60;74.50
63017;DHT22;50274;45.640;11.756;2023-01-23T16:25:30;8.50;74.70
63017;DHT22;50274;45.640;11.756;2023-01-23T16:27:56;8.50;74.60
63017;DHT22;50274;45.640;11.756;2023-01-23T16:30:25;8.50;74.40
63017;DHT22;50274;45.640;11.756;2023-01-23T16:32:54;8.60;73.60
63017;DHT22;50274;45.640;11.756;2023-01-23T16:35:24;8.60;73.90
63017;DHT22;50274;45.640;11.756;2023-01-23T16:37:51;8.60;74.10
63017;DHT22;50274;45.640;11.756;2023-01-23T16:40:23;8.50;74.10
63017;DHT22;50274;45.640;11.756;2023-01-23T16:42:51;8.50;73.60
63017;DHT22;50274;45.640;11.756;2023-01-23T16:45:23;8.50;73.10
63017;DHT22;50274;45.640;11.756;2023-01-23T16:47:52;8.60;73.20
63017;DHT22;50274;45.640;11.756;2023-01-23T16:50:30;8.60;73.20
63017;DHT22;50274;45.640;11.756;2023-01-23T16:53:29;8.60;73.10
63017;DHT22;50274;45.640;11.756;2023-01-23T16:55:57;8.60;73.10
63017;DHT22;50274;45.640;11.756;2023-01-23T16:58:26;8.50;73.10
63017;DHT22;50274;45.640;11.756;2023-01-23T17:01:01;8.50;73.00
63017;DHT22;50274;45.640;11.756;2023-01-23T17:03:32;8.50;73.30
63017;DHT22;50274;45.640;11.756;2023-01-23T17:05:58;8.50;73.40
63017;DHT22;50274;45.640;11.756;2023-01-23T17:08:25;8.50;73.50
63017;DHT22;50274;45.640;11.756;2023-01-23T17:10:56;8.50;73.50
63017;DHT22;50274;45.640;11.756;2023-01-23T17:13:25;8.50;73.40
63017;DHT22;50274;45.640;11.756;2023-01-23T17:15:53;8.50;73.50
63017;DHT22;50274;45.640;11.756;2023-01-23T17:18:29;8.50;73.20
63017;DHT22;50274;45.640;11.756;2023-01-23T17:20:56;8.50;73.10
63017;DHT22;50274;45.640;11.756;2023-01-23T17:23:25;8.50;73.00
63017;DHT22;50274;45.640;11.756;2023-01-23T17:25:52;8.50;73.00
63017;DHT22;50274;45.640;11.756;2023-01-23T17:28:21;8.50;72.90
63017;DHT22;50274;45.640;11.756;2023-01-23T17:30:54;8.50;73.00
63017;DHT22;50274;45.640;11.756;2023-01-23T17:33:25;8.50;72.70
63017;DHT22;50274;45.640;11.756;2023-01-23T17:35:54;8.50;72.60
63017;DHT22;50274;45.640;11.756;2023-01-23T17:38:24;8.50;72.50
63017;DHT22;50274;45.640;11.756;2023-01-23T17:40:55;8.50;72.40
63017;DHT22;50274;45.640;11.756;2023-01-23T17:43:24;8.50;72.30
63017;DHT22;50274;45.640;11.756;2023-01-23T17:45:54;8.60;72.40